Time;durP1;ratioP1;P1;durP2;ratioP2;P2;SDS_P1;SDS_P2;PMS_P1;PMS_P2;Temp;Humidity;BMP_temperature;BMP_pressure;BME280_temperature;BME280_humidity;BME280_pressure;Samples;Min_cycle;Max_cycle;Signal;HPM_P1;HPM_P2
2023/10/11 00:02:57;;;;;;;;;;;;;;;15.74;100.00;100054.75;5075110;28;19920;-78
2023/10/11 00:05:23;;;;;;;;;;;;;;;15.75;100.00;100061.75;5064637;28;19913;-79
2023/10/11 00:07:49;;;;;;;;;;;;;;;15.63;100.00;100053.50;5052032;28;19958;-79
2023/10/11 00:10:22;;;;;;;;;;;;;;;15.67;100.00;100075.44;5079445;28;19912;-77
2023/10/11 00:12:50;;;;;;;;;;;;;;;15.71;100.00;100065.91;5067813;28;20398;-79
2023/10/11 00:15:15;;;;;;;;;;;;;;;15.63;100.00;100059.69;5060827;28;20367;-81
2023/10/11 00:17:41;;;;;;;;;;;;;;;15.70;100.00;100069.63;5064960;28;19920;-80
2023/10/11 00:20:19;;;;;;;;;;;;;;;15.52;100.00;100071.13;5064002;28;19912;-79
2023/10/11 00:22:45;;;;;;;;;;;;;;;15.62;100.00;100073.38;5063196;28;20511;-76
2023/10/11 00:25:12;;;;;;;;;;;;;;;15.59;100.00;100047.72;5049953;28;20013;-80
2023/10/11 00:27:37;;;;;;;;;;;;;;;15.59;100.00;100052.25;5062544;28;20383;-79
2023/10/11 00:30:03;;;;;;;;;;;;;;;15.59;100.00;100063.88;5067562;28;19915;-79
2023/10/11 00:32:29;;;;;;;;;;;;;;;15.56;100.00;100061.59;5059998;28;20074;-79
2023/10/11 00:34:54;;;;;;;;;;;;;;;15.51;100.00;100061.41;5056592;28;19916;-80
2023/10/11 00:37:20;;;;;;;;;;;;;;;15.52;100.00;100056.84;5057740;28;20330;-78
2023/10/11 00:39:45;;;;;;;;;;;;;;;15.56;100.00;100063.47;5066400;28;19924;-79
2023/10/11 00:42:10;;;;;;;;;;;;;;;15.49;100.00;100055.41;5062272;28;19958;-80
2023/10/11 00:44:36;;;;;;;;;;;;;;;15.53;100.00;100056.63;5060963;28;19919;-79
2023/10/11 00:47:01;;;;;;;;;;;;;;;15.50;100.00;100054.38;5067251;28;19913;-79
2023/10/11 00:49:35;;;;;;;;;;;;;;;15.53;100.00;100064.72;5042930;28;19920;-79
2023/10/11 00:52:04;;;;;;;;;;;;;;;15.46;100.00;100063.09;5067113;28;19920;-80
2023/10/11 00:54:32;;;;;;;;;;;;;;;15.47;100.00;100062.84;5061118;28;19913;-79
2023/10/11 00:56:58;;;;;;;;;;;;;;;15.50;100.00;100050.84;5060047;28;19924;-79
2023/10/11 00:59:23;;;;;;;;;;;;;;;15.53;100.00;100040.50;5073948;28;20305;-79
2023/10/11 01:01:51;;;;;;;;;;;;;;;15.49;100.00;100052.72;5088543;28;19927;-79
2023/10/11 01:04:18;;;;;;;;;;;;;;;15.67;100.00;100032.38;5058738;28;19987;-79
2023/10/11 01:06:44;;;;;;;;;;;;;;;15.64;100.00;100033.66;5089918;28;20707;-80
2023/10/11 01:09:15;;;;;;;;;;;;;;;15.63;100.00;100013.13;5081358;28;19911;-79
2023/10/11 01:11:40;;;;;;;;;;;;;;;15.62;100.00;100004.25;5087122;28;19916;-79
2023/10/11 01:14:06;;;;;;;;;;;;;;;15.61;100.00;100001.75;5069130;28;19999;-78
2023/10/11 01:16:31;;;;;;;;;;;;;;;15.56;100.00;100009.66;5085371;28;19935;-79
2023/10/11 01:18:57;;;;;;;;;;;;;;;15.56;100.00;100032.00;5088143;28;20526;-79
2023/10/11 01:21:22;;;;;;;;;;;;;;;15.59;100.00;100036.13;5073543;28;20407;-79
2023/10/11 01:23:50;;;;;;;;;;;;;;;15.52;100.00;100030.78;5076432;28;19912;-78
2023/10/11 01:26:17;;;;;;;;;;;;;;;15.52;100.00;100014.66;5062514;28;19908;-79
2023/10/11 01:28:47;;;;;;;;;;;;;;;15.56;100.00;100015.84;5069605;28;19919;-78
2023/10/11 01:31:16;;;;;;;;;;;;;;;15.55;100.00;100008.84;5070119;28;20449;-78
2023/10/11 01:33:42;;;;;;;;;;;;;;;15.49;100.00;100025.81;5084350;28;19916;-79
2023/10/11 01:36:09;;;;;;;;;;;;;;;15.58;100.00;100024.53;5087893;28;19920;-79
2023/10/11 01:38:47;;;;;;;;;;;;;;;15.63;100.00;100008.56;5078924;28;20330;-81
2023/10/11 01:41:18;;;;;;;;;;;;;;;15.51;100.00;100004.91;5088063;28;19919;-80
2023/10/11 01:43:46;;;;;;;;;;;;;;;15.48;100.00;99985.69;5081468;28;19924;-80
2023/10/11 01:46:16;;;;;;;;;;;;;;;15.38;100.00;99997.72;5087193;28;19912;-80
2023/10/11 01:48:41;;;;;;;;;;;;;;;15.45;100.00;100023.75;5086512;28;20286;-79
2023/10/11 01:51:09;;;;;;;;;;;;;;;15.53;100.00;100010.91;5087911;28;19915;-79
2023/10/11 01:53:35;;;;;;;;;;;;;;;15.46;100.00;100007.41;5087518;28;19916;-80
2023/10/11 01:56:01;;;;;;;;;;;;;;;15.45;100.00;100024.56;5081101;28;20383;-79
2023/10/11 01:58:26;;;;;;;;;;;;;;;15.37;100.00;100044.47;5051453;28;19916;-79
2023/10/11 02:00:53;;;;;;;;;;;;;;;15.29;100.00;100046.53;5060146;28;19915;-79
2023/10/11 02:03:18;;;;;;;;;;;;;;;15.46;100.00;100050.44;5043594;28;19916;-79
2023/10/11 02:05:43;;;;;;;;;;;;;;;15.38;100.00;100023.78;5060843;28;19913;-79
2023/10/11 02:08:13;;;;;;;;;;;;;;;15.46;100.00;100014.66;5058908;28;20383;-78
2023/10/11 02:10:39;;;;;;;;;;;;;;;15.28;100.00;100023.41;5066359;28;20784;-80
2023/10/11 02:13:06;;;;;;;;;;;;;;;15.35;100.00;100037.66;5085698;28;19916;-80
2023/10/11 02:15:33;;;;;;;;;;;;;;;15.33;100.00;100012.81;5090789;28;20346;-78
2023/10/11 02:18:00;;;;;;;;;;;;;;;15.26;100.00;100017.41;5090957;28;19916;-79
2023/10/11 02:20:25;;;;;;;;;;;;;;;15.34;100.00;100039.53;5080518;28;19934;-79
2023/10/11 02:22:51;;;;;;;;;;;;;;;15.25;100.00;100023.81;5081132;28;20341;-79
2023/10/11 02:25:19;;;;;;;;;;;;;;;15.19;100.00;100018.25;5086812;28;19912;-79
2023/10/11 02:27:45;;;;;;;;;;;;;;;15.27;100.00;100019.06;5088818;28;19922;-81
2023/10/11 02:30:14;;;;;;;;;;;;;;;15.19;100.00;100037.09;5090287;28;19942;-79
2023/10/11 02:32:42;;;;;;;;;;;;;;;15.17;100.00;100027.53;5081799;28;19916;-80
2023/10/11 02:35:08;;;;;;;;;;;;;;;15.19;100.00;100020.94;5071439;28;19915;-79
2023/10/11 02:37:36;;;;;;;;;;;;;;;15.04;100.00;100033.78;5082293;28;19916;-79
2023/10/11 02:40:07;;;;;;;;;;;;;;;15.15;100.00;100056.53;5088604;28;19922;-79
2023/10/11 02:42:36;;;;;;;;;;;;;;;15.24;100.00;100055.28;5092185;28;20527;-79
2023/10/11 02:45:06;;;;;;;;;;;;;;;15.17;100.00;100041.84;5089846;28;19998;-79
2023/10/11 02:47:35;;;;;;;;;;;;;;;15.24;100.00;100057.97;5090343;28;19911;-79
2023/10/11 02:50:05;;;;;;;;;;;;;;;15.22;100.00;100035.84;5084878;28;19908;-79
2023/10/11 02:52:36;;;;;;;;;;;;;;;15.09;100.00;100028.59;5063588;28;19912;-79
2023/10/11 02:55:11;;;;;;;;;;;;;;;15.12;100.00;100057.75;5083850;28;19954;-80
2023/10/11 02:57:40;;;;;;;;;;;;;;;15.15;100.00;100068.09;5062521;28;19952;-79
2023/10/11 03:00:12;;;;;;;;;;;;;;;15.18;100.00;100051.53;5083349;28;19939;-78
2023/10/11 03:02:39;;;;;;;;;;;;;;;15.16;100.00;100047.41;5092033;28;19945;-80
2023/10/11 03:05:06;;;;;;;;;;;;;;;15.08;100.00;100053.03;5083238;28;19915;-79
2023/10/11 03:07:33;;;;;;;;;;;;;;;15.10;100.00;100069.75;5073078;28;19911;-79
2023/10/11 03:09:59;;;;;;;;;;;;;;;15.13;100.00;100069.34;5075432;28;19915;-80
2023/10/11 03:12:30;;;;;;;;;;;;;;;15.12;100.00;100063.13;5066936;28;19912;-81
2023/10/11 03:14:56;;;;;;;;;;;;;;;15.21;100.00;100042.22;5078709;28;20386;-79
2023/10/11 03:17:21;;;;;;;;;;;;;;;15.12;100.00;100046.16;5091512;28;19944;-79
2023/10/11 03:19:49;;;;;;;;;;;;;;;15.18;100.00;100093.75;5087838;28;19919;-79
2023/10/11 03:22:20;;;;;;;;;;;;;;;15.15;100.00;100092.31;5084967;28;19916;-79
2023/10/11 03:25:12;;;;;;;;;;;;;;;15.27;100.00;100097.06;5090697;28;19912;-79
2023/10/11 03:27:45;;;;;;;;;;;;;;;15.22;100.00;100065.41;5091105;28;19916;-78
2023/10/11 03:30:13;;;;;;;;;;;;;;;15.19;100.00;100058.59;5074883;28;19912;-78
2023/10/11 03:32:41;;;;;;;;;;;;;;;15.27;100.00;100044.09;5085522;28;19908;-80
2023/10/11 03:35:07;;;;;;;;;;;;;;;15.30;100.00;100045.53;5090731;28;20363;-79
2023/10/11 03:37:33;;;;;;;;;;;;;;;15.25;100.00;100034.59;5075402;28;19920;-79
2023/10/11 03:39:58;;;;;;;;;;;;;;;15.18;100.00;100056.94;5090402;28;19912;-80
2023/10/11 03:45:08;;;;;;;;;;;;;;;15.02;100.00;100051.97;5086597;28;19920;-79
2023/10/11 03:47:35;;;;;;;;;;;;;;;14.96;100.00;100048.28;5058800;28;20812;-78
2023/10/11 03:50:00;;;;;;;;;;;;;;;15.09;100.00;100078.88;5061488;28;19956;-79
2023/10/11 03:52:30;;;;;;;;;;;;;;;15.05;100.00;100066.88;5060531;28;20428;-79
2023/10/11 03:55:05;;;;;;;;;;;;;;;15.05;100.00;100083.00;5060280;28;19912;-79
2023/10/11 03:57:35;;;;;;;;;;;;;;;15.08;100.00;100099.56;5058704;28;19940;-79
2023/10/11 04:00:07;;;;;;;;;;;;;;;15.07;100.00;100097.88;5065364;28;19912;-78
2023/10/11 04:02:37;;;;;;;;;;;;;;;15.04;100.00;100087.53;5081674;28;20459;-79
2023/10/11 04:05:03;;;;;;;;;;;;;;;15.05;100.00;100105.31;5084851;28;19908;-78
2023/10/11 04:07:31;;;;;;;;;;;;;;;15.05;100.00;100116.06;5082119;28;19912;-78
2023/10/11 04:10:04;;;;;;;;;;;;;;;15.10;100.00;100113.63;5072833;28;19919;-78
2023/10/11 04:12:30;;;;;;;;;;;;;;;15.10;100.00;100119.00;5089038;28;20014;-80
2023/10/11 04:14:57;;;;;;;;;;;;;;;14.90;100.00;100110.09;5088546;28;19943;-78
2023/10/11 04:19:51;;;;;;;;;;;;;;;15.11;100.00;100131.38;5078552;28;20414;-79
2023/10/11 04:22:18;;;;;;;;;;;;;;;15.13;100.00;100113.19;5089057;28;20458;-78
2023/10/11 04:24:48;;;;;;;;;;;;;;;15.11;100.00;100115.25;5088254;28;19912;-78
2023/10/11 04:29:51;;;;;;;;;;;;;;;15.06;100.00;100108.84;5088355;28;19971;-78
2023/10/11 04:32:41;;;;;;;;;;;;;;;15.16;100.00;100138.81;5087248;28;19919;-79
2023/10/11 04:35:21;;;;;;;;;;;;;;;15.13;100.00;100123.13;5076513;28;19912;-79
2023/10/11 04:37:52;;;;;;;;;;;;;;;15.05;100.00;100113.38;5086795;28;19935;-78
2023/10/11 04:45:45;;;;;;;;;;;;;;;14.92;100.00;100143.78;5079792;28;19916;-80
2023/10/11 04:48:18;;;;;;;;;;;;;;;15.01;100.00;100151.63;5088020;28;20470;-79
2023/10/11 04:50:48;;;;;;;;;;;;;;;15.09;100.00;100157.66;5088197;28;19959;-79
2023/10/11 04:53:17;;;;;;;;;;;;;;;15.11;100.00;100162.81;5087294;28;19916;-79
2023/10/11 04:55:47;;;;;;;;;;;;;;;15.11;100.00;100154.75;5083399;28;19924;-79
2023/10/11 04:58:38;;;;;;;;;;;;;;;15.04;100.00;100153.94;5087697;28;19915;-78
2023/10/11 05:01:01;;;;;;;;;;;;;;;14.97;100.00;100140.50;5071155;28;19923;-78
2023/10/11 05:03:29;;;;;;;;;;;;;;;15.02;100.00;100172.13;5078848;28;19928;-79
2023/10/11 05:05:58;;;;;;;;;;;;;;;15.03;100.00;100165.69;5078292;28;19916;-79
2023/10/11 05:11:19;;;;;;;;;;;;;;;15.03;100.00;100163.88;5074525;28;20420;-79
2023/10/11 05:13:59;;;;;;;;;;;;;;;15.16;100.00;100179.97;5078609;28;19919;-79
2023/10/11 05:16:24;;;;;;;;;;;;;;;15.12;100.00;100156.41;5080841;28;19915;-79
2023/10/11 05:18:49;;;;;;;;;;;;;;;14.99;100.00;100168.81;5079206;28;19919;-79
2023/10/11 05:21:16;;;;;;;;;;;;;;;15.05;100.00;100169.84;5088248;28;19918;-79
2023/10/11 05:23:52;;;;;;;;;;;;;;;15.08;100.00;100174.00;5079770;28;20517;-79
2023/10/11 05:26:36;;;;;;;;;;;;;;;15.04;100.00;100173.56;5084599;28;20495;-79
2023/10/11 05:29:24;;;;;;;;;;;;;;;15.04;100.00;100156.63;5087573;28;20017;-79
2023/10/11 05:32:20;;;;;;;;;;;;;;;15.06;100.00;100184.13;5080323;28;19920;-79
2023/10/11 05:35:07;;;;;;;;;;;;;;;15.03;100.00;100171.94;5080287;28;19911;-78
2023/10/11 05:51:12;;;;;;;;;;;;;;;15.35;100.00;100188.25;5058431;28;19912;-78
2023/10/11 05:53:40;;;;;;;;;;;;;;;15.47;100.00;100189.28;5059229;28;20370;-79
2023/10/11 05:56:08;;;;;;;;;;;;;;;15.28;100.00;100163.22;5055902;28;20310;-79
2023/10/11 05:58:34;;;;;;;;;;;;;;;15.36;100.00;100177.31;5059562;28;19917;-79
2023/10/11 06:01:05;;;;;;;;;;;;;;;15.29;100.00;100156.81;5067887;28;20069;-79
2023/10/11 06:03:35;;;;;;;;;;;;;;;15.35;100.00;100156.00;5063180;28;19995;-79
2023/10/11 06:06:10;;;;;;;;;;;;;;;15.47;100.00;100167.75;5061425;28;20603;-80
2023/10/11 06:08:38;;;;;;;;;;;;;;;15.36;100.00;100144.22;5056677;28;20118;-79
2023/10/11 06:11:08;;;;;;;;;;;;;;;15.35;100.00;100132.59;5057629;28;19922;-78
2023/10/11 06:13:33;;;;;;;;;;;;;;;15.45;100.00;100152.88;5061228;28;19912;-79
2023/10/11 06:15:58;;;;;;;;;;;;;;;15.49;100.00;100165.69;5059949;28;19966;-79
2023/10/11 06:18:52;;;;;;;;;;;;;;;15.38;100.00;100148.34;5059370;28;20286;-79
2023/10/11 06:21:33;;;;;;;;;;;;;;;15.50;100.00;100162.00;5062012;28;19934;-79
2023/10/11 06:23:59;;;;;;;;;;;;;;;15.56;100.00;100168.38;5060718;28;20357;-78
2023/10/11 06:29:08;;;;;;;;;;;;;;;15.54;100.00;100163.19;5056490;28;19916;-78
2023/10/11 06:31:39;;;;;;;;;;;;;;;15.49;100.00;100154.13;5057299;28;19913;-78
2023/10/11 06:34:15;;;;;;;;;;;;;;;15.61;100.00;100155.13;5056630;28;20283;-79
2023/10/11 06:36:50;;;;;;;;;;;;;;;15.53;100.00;100160.75;5047375;28;19913;-80
2023/10/11 06:42:12;;;;;;;;;;;;;;;15.61;100.00;100163.19;5071441;28;19916;-79
2023/10/11 06:44:38;;;;;;;;;;;;;;;15.67;100.00;100158.84;5057287;28;19964;-79
2023/10/11 06:47:03;;;;;;;;;;;;;;;15.58;100.00;100163.63;5060094;28;20009;-79
2023/10/11 06:49:44;;;;;;;;;;;;;;;15.70;100.00;100163.81;5057886;28;19916;-80
2023/10/11 06:52:18;;;;;;;;;;;;;;;15.74;100.00;100157.00;5056543;28;19916;-78
2023/10/11 06:54:47;;;;;;;;;;;;;;;15.59;100.00;100149.97;5057890;28;20314;-78
2023/10/11 06:57:17;;;;;;;;;;;;;;;15.49;100.00;100154.94;5058932;28;19908;-78
2023/10/11 06:59:42;;;;;;;;;;;;;;;15.73;100.00;100188.47;5060631;28;19963;-78
2023/10/11 07:02:17;;;;;;;;;;;;;;;15.61;100.00;100169.41;5056650;28;20026;-78
2023/10/11 07:04:50;;;;;;;;;;;;;;;15.70;100.00;100158.44;5061009;28;19912;-78
2023/10/11 07:07:16;;;;;;;;;;;;;;;15.60;100.00;100145.41;5054426;28;20003;-77
2023/10/11 07:09:56;;;;;;;;;;;;;;;15.79;100.00;100170.66;5056855;28;20015;-78
2023/10/11 07:12:39;;;;;;;;;;;;;;;15.75;100.00;100185.56;5058177;28;19923;-79
2023/10/11 07:15:08;;;;;;;;;;;;;;;15.86;100.00;100182.22;5054794;28;19999;-78
2023/10/11 07:17:33;;;;;;;;;;;;;;;15.82;100.00;100175.59;5055723;28;20023;-79
2023/10/11 07:20:00;;;;;;;;;;;;;;;15.89;100.00;100200.63;5056759;28;19916;-79
2023/10/11 07:22:28;;;;;;;;;;;;;;;15.86;100.00;100192.19;5056181;28;19916;-78
2023/10/11 07:24:57;;;;;;;;;;;;;;;15.82;100.00;100191.75;5056424;28;20006;-79
2023/10/11 07:27:38;;;;;;;;;;;;;;;15.80;100.00;100216.22;5056806;28;19938;-79
2023/10/11 07:30:06;;;;;;;;;;;;;;;15.86;100.00;100224.47;5058708;28;19934;-78
2023/10/11 07:32:33;;;;;;;;;;;;;;;15.88;100.00;100206.25;5056245;28;19948;-80
2023/10/11 07:35:03;;;;;;;;;;;;;;;15.88;100.00;100201.69;5054770;28;20416;-77
2023/10/11 07:37:29;;;;;;;;;;;;;;;15.88;100.00;100204.38;5059433;28;19917;-78
2023/10/11 07:40:00;;;;;;;;;;;;;;;15.93;100.00;100198.38;5056237;28;20335;-78
2023/10/11 07:42:28;;;;;;;;;;;;;;;15.90;100.00;100205.00;5052747;28;19995;-79
2023/10/11 07:44:53;;;;;;;;;;;;;;;15.94;100.00;100208.91;5057652;28;20347;-78
2023/10/11 07:47:25;;;;;;;;;;;;;;;15.87;100.00;100189.25;5053360;28;19923;-78
2023/10/11 07:49:54;;;;;;;;;;;;;;;15.74;100.00;100200.88;5053036;28;19913;-77
2023/10/11 07:52:19;;;;;;;;;;;;;;;15.89;100.00;100210.59;5056976;28;20303;-79
2023/10/11 07:54:45;;;;;;;;;;;;;;;15.98;100.00;100218.22;5059310;28;19995;-77
2023/10/11 07:57:14;;;;;;;;;;;;;;;15.93;100.00;100207.25;5056474;28;19934;-78
2023/10/11 07:59:40;;;;;;;;;;;;;;;16.04;100.00;100216.56;5054691;28;19916;-79
2023/10/11 08:02:26;;;;;;;;;;;;;;;15.96;100.00;100224.84;5063093;28;20283;-77
2023/10/11 08:04:53;;;;;;;;;;;;;;;16.06;100.00;100237.88;5054153;28;19917;-78
2023/10/11 08:07:19;;;;;;;;;;;;;;;15.92;100.00;100251.38;5052959;28;20305;-80
2023/10/11 08:09:52;;;;;;;;;;;;;;;16.01;100.00;100260.91;5049930;28;20291;-79
2023/10/11 08:12:19;;;;;;;;;;;;;;;15.98;100.00;100255.91;5052841;28;20411;-78
2023/10/11 08:14:45;;;;;;;;;;;;;;;16.08;100.00;100254.66;5054346;28;19920;-78
2023/10/11 08:17:14;;;;;;;;;;;;;;;16.08;100.00;100251.97;5064662;28;19912;-80
2023/10/11 08:19:44;;;;;;;;;;;;;;;15.98;100.00;100229.00;5057562;28;19959;-78
2023/10/11 08:22:10;;;;;;;;;;;;;;;16.10;100.00;100241.81;5061103;28;20294;-78
2023/10/11 08:24:46;;;;;;;;;;;;;;;16.19;100.00;100232.47;5050602;28;19935;-78
2023/10/11 08:27:12;;;;;;;;;;;;;;;16.29;100.00;100221.25;5050383;28;19963;-77
2023/10/11 08:29:38;;;;;;;;;;;;;;;16.11;100.00;100200.38;5053801;28;20003;-77
2023/10/11 08:32:06;;;;;;;;;;;;;;;16.17;100.00;100229.16;5053348;28;20047;-78
2023/10/11 08:34:32;;;;;;;;;;;;;;;16.10;100.00;100231.03;5057336;28;19916;-77
2023/10/11 08:36:57;;;;;;;;;;;;;;;16.23;100.00;100248.00;5061139;28;19932;-78
2023/10/11 08:39:35;;;;;;;;;;;;;;;16.27;100.00;100236.78;5061155;28;20133;-78
2023/10/11 08:42:06;;;;;;;;;;;;;;;16.28;100.00;100247.34;5060223;28;19920;-78
2023/10/11 08:44:32;;;;;;;;;;;;;;;16.26;100.00;100230.56;5045344;28;19916;-77
2023/10/11 08:47:01;;;;;;;;;;;;;;;16.25;100.00;100218.97;5055972;28;19912;-77
2023/10/11 08:49:26;;;;;;;;;;;;;;;16.09;100.00;100205.16;5056708;28;20017;-77
2023/10/11 08:51:56;;;;;;;;;;;;;;;16.30;100.00;100220.22;5055239;28;20379;-76
2023/10/11 08:54:25;;;;;;;;;;;;;;;16.45;100.00;100229.66;5055118;28;19923;-76
2023/10/11 08:57:03;;;;;;;;;;;;;;;16.29;100.00;100218.56;5049825;28;20443;-77
2023/10/11 08:59:31;;;;;;;;;;;;;;;16.20;100.00;100236.81;5053149;28;20350;-78
2023/10/11 09:02:07;;;;;;;;;;;;;;;16.20;100.00;100242.19;5051644;28;19917;-77
2023/10/11 09:04:35;;;;;;;;;;;;;;;16.21;100.00;100249.25;5054017;28;20344;-78
2023/10/11 09:07:01;;;;;;;;;;;;;;;16.17;100.00;100248.00;5056229;28;19965;-76
2023/10/11 09:09:39;;;;;;;;;;;;;;;16.20;100.00;100253.81;5054476;28;19912;-76
2023/10/11 09:12:23;;;;;;;;;;;;;;;16.24;100.00;100260.41;5056316;28;19916;-78
2023/10/11 09:14:58;;;;;;;;;;;;;;;16.29;100.00;100249.00;5059077;28;20261;-78
2023/10/11 09:17:27;;;;;;;;;;;;;;;16.38;100.00;100249.59;5076959;28;19915;-78
2023/10/11 09:19:56;;;;;;;;;;;;;;;16.39;100.00;100245.88;5069612;28;19908;-77
2023/10/11 09:22:22;;;;;;;;;;;;;;;16.29;100.00;100232.84;5068191;28;19951;-76
2023/10/11 09:25:02;;;;;;;;;;;;;;;16.25;100.00;100228.94;5064696;28;19964;-77
2023/10/11 09:27:41;;;;;;;;;;;;;;;16.35;100.00;100256.25;5064646;28;19969;-78
2023/10/11 09:30:19;;;;;;;;;;;;;;;16.40;100.00;100250.22;5073766;28;19912;-76
2023/10/11 09:32:48;;;;;;;;;;;;;;;16.39;100.00;100246.72;5066474;28;20394;-76
2023/10/11 09:35:23;;;;;;;;;;;;;;;16.43;100.00;100255.16;5069526;28;20394;-79
2023/10/11 09:37:50;;;;;;;;;;;;;;;16.28;100.00;100239.28;5072765;28;19954;-76
2023/10/11 09:40:18;;;;;;;;;;;;;;;16.25;100.00;100254.00;5062250;28;19907;-78
2023/10/11 09:42:43;;;;;;;;;;;;;;;16.35;100.00;100272.41;5069437;28;20329;-78
2023/10/11 09:45:16;;;;;;;;;;;;;;;16.46;100.00;100265.53;5069583;28;19912;-77
2023/10/11 09:47:42;;;;;;;;;;;;;;;16.18;100.00;100257.75;5068843;28;19943;-77
2023/10/11 09:50:14;;;;;;;;;;;;;;;16.32;100.00;100289.00;5069469;28;19909;-76
2023/10/11 09:52:45;;;;;;;;;;;;;;;16.21;100.00;100260.03;5069210;28;19942;-76
2023/10/11 09:55:17;;;;;;;;;;;;;;;16.27;100.00;100279.88;5066131;28;19955;-77
2023/10/11 09:57:50;;;;;;;;;;;;;;;16.29;100.00;100273.25;5080833;28;19912;-77
2023/10/11 10:00:34;;;;;;;;;;;;;;;16.24;100.00;100286.53;5083159;28;20006;-77
2023/10/11 10:02:59;;;;;;;;;;;;;;;16.30;100.00;100290.25;5092245;28;20078;-76
2023/10/11 10:05:30;;;;;;;;;;;;;;;16.29;100.00;100289.41;5092001;28;19908;-76
2023/10/11 10:08:12;;;;;;;;;;;;;;;16.22;100.00;100299.38;5090227;28;19912;-77
2023/10/11 10:10:54;;;;;;;;;;;;;;;16.24;100.00;100302.69;5087630;28;19916;-77
2023/10/11 10:13:24;;;;;;;;;;;;;;;16.24;100.00;100305.38;5089213;28;19912;-76
2023/10/11 10:15:52;;;;;;;;;;;;;;;16.21;100.00;100303.94;5068928;28;19916;-77
2023/10/11 10:18:17;;;;;;;;;;;;;;;16.32;100.00;100305.16;5075448;28;19908;-77
2023/10/11 10:20:46;;;;;;;;;;;;;;;16.34;100.00;100304.94;5068374;28;19927;-76
2023/10/11 10:23:14;;;;;;;;;;;;;;;16.50;100.00;100306.34;5070857;28;20318;-75
2023/10/11 10:25:45;;;;;;;;;;;;;;;16.59;100.00;100300.50;5071441;28;19948;-76
2023/10/11 10:28:45;;;;;;;;;;;;;;;16.62;100.00;100283.94;5061031;28;19912;-77
2023/10/11 10:31:17;;;;;;;;;;;;;;;16.55;100.00;100282.28;5067003;28;19911;-77
2023/10/11 10:33:44;;;;;;;;;;;;;;;16.60;100.00;100275.22;5066589;28;19912;-79
2023/10/11 10:36:18;;;;;;;;;;;;;;;16.75;100.00;100257.94;5064694;28;20004;-78
2023/10/11 10:39:01;;;;;;;;;;;;;;;16.70;100.00;100258.59;5067247;28;19916;-78
2023/10/11 10:41:27;;;;;;;;;;;;;;;16.64;100.00;100244.09;5070350;28;20002;-77
2023/10/11 10:44:09;;;;;;;;;;;;;;;16.45;100.00;100234.25;5067164;28;20490;-76
2023/10/11 10:46:35;;;;;;;;;;;;;;;16.66;100.00;100246.59;5063468;28;20294;-79
2023/10/11 10:49:01;;;;;;;;;;;;;;;16.74;100.00;100222.09;5066537;28;19916;-77
2023/10/11 10:51:35;;;;;;;;;;;;;;;16.63;100.00;100220.06;5064980;28;19912;-77
2023/10/11 10:54:04;;;;;;;;;;;;;;;16.69;100.00;100208.41;5066507;28;19974;-77
2023/10/11 10:56:29;;;;;;;;;;;;;;;16.69;100.00;100192.25;5066218;28;19913;-78
2023/10/11 10:59:25;;;;;;;;;;;;;;;16.89;100.00;100213.72;5060381;28;19965;-77
2023/10/11 11:01:50;;;;;;;;;;;;;;;16.83;100.00;100210.03;5069154;28;20378;-77
2023/10/11 11:04:20;;;;;;;;;;;;;;;16.87;100.00;100195.06;5069299;28;19923;-77
2023/10/11 11:06:46;;;;;;;;;;;;;;;16.90;100.00;100184.91;5066811;28;20003;-78
2023/10/11 11:09:15;;;;;;;;;;;;;;;16.86;100.00;100176.44;5065684;28;20349;-78
2023/10/11 11:11:41;;;;;;;;;;;;;;;17.00;100.00;100187.94;5065968;28;19912;-78
2023/10/11 11:14:14;;;;;;;;;;;;;;;17.04;100.00;100165.72;5065380;28;20429;-77
2023/10/11 11:16:41;;;;;;;;;;;;;;;17.03;100.00;100152.44;5066955;28;19916;-78
2023/10/11 11:19:16;;;;;;;;;;;;;;;17.12;100.00;100132.25;5069308;28;19914;-76
2023/10/11 11:21:44;;;;;;;;;;;;;;;17.04;100.00;100101.00;5063202;28;20532;-77
2023/10/11 11:24:17;;;;;;;;;;;;;;;17.13;100.00;100127.69;5067043;28;20291;-78
2023/10/11 11:26:43;;;;;;;;;;;;;;;17.51;100.00;100116.72;5069518;28;20116;-77
2023/10/11 11:29:09;;;;;;;;;;;;;;;17.56;100.00;100098.00;5066562;28;19912;-79
2023/10/11 11:31:51;;;;;;;;;;;;;;;17.36;100.00;100046.13;5066565;28;19955;-77
2023/10/11 11:34:18;;;;;;;;;;;;;;;17.55;100.00;100045.06;5064523;28;19912;-77
2023/10/11 11:36:53;;;;;;;;;;;;;;;17.47;100.00;100050.78;5058180;28;19912;-76
2023/10/11 11:39:36;;;;;;;;;;;;;;;17.46;100.00;100051.81;5046280;28;19923;-79
2023/10/11 11:42:07;;;;;;;;;;;;;;;17.24;100.00;100043.34;5065804;28;20022;-77
2023/10/11 11:44:33;;;;;;;;;;;;;;;17.33;100.00;100035.78;5065537;28;19944;-76
2023/10/11 11:47:06;;;;;;;;;;;;;;;17.24;100.00;100011.78;5066734;28;20401;-80
2023/10/11 11:49:33;;;;;;;;;;;;;;;17.38;100.00;100020.56;5071828;28;20450;-76
2023/10/11 11:51:58;;;;;;;;;;;;;;;17.54;100.00;100011.06;5071161;28;19962;-79
2023/10/11 11:54:33;;;;;;;;;;;;;;;17.96;100.00;99984.16;5065761;28;19951;-78
2023/10/11 11:56:59;;;;;;;;;;;;;;;18.22;100.00;99941.59;5064961;28;19916;-77
2023/10/11 11:59:25;;;;;;;;;;;;;;;18.16;100.00;99891.19;5062754;28;19912;-77
2023/10/11 12:01:56;;;;;;;;;;;;;;;17.95;100.00;99914.16;5064536;28;19916;-79
2023/10/11 12:04:29;;;;;;;;;;;;;;;17.66;100.00;99889.66;5051663;28;19924;-76
2023/10/11 12:06:57;;;;;;;;;;;;;;;17.81;100.00;99935.94;5064884;28;19934;-78
2023/10/11 12:09:22;;;;;;;;;;;;;;;17.74;100.00;99948.69;5066680;28;19913;-77
2023/10/11 12:11:53;;;;;;;;;;;;;;;17.55;100.00;99929.03;5064703;28;19916;-77
2023/10/11 12:14:22;;;;;;;;;;;;;;;17.71;100.00;99949.97;5065378;28;20058;-81
2023/10/11 12:16:48;;;;;;;;;;;;;;;17.59;100.00;99970.72;5058089;28;20021;-78
2023/10/11 12:19:13;;;;;;;;;;;;;;;17.56;100.00;99990.06;5066409;28;20045;-79
2023/10/11 12:21:40;;;;;;;;;;;;;;;17.64;100.00;100003.22;5068337;28;19912;-76
2023/10/11 12:24:11;;;;;;;;;;;;;;;17.75;100.00;99990.00;5072429;28;20099;-78
2023/10/11 12:26:46;;;;;;;;;;;;;;;17.71;100.00;99976.97;5067120;28;19912;-79
2023/10/11 12:29:12;;;;;;;;;;;;;;;17.68;100.00;99963.13;5083935;28;19912;-80
2023/10/11 12:31:41;;;;;;;;;;;;;;;17.77;100.00;99966.31;5069315;28;19912;-80
2023/10/11 12:34:09;;;;;;;;;;;;;;;17.52;100.00;99916.00;5068604;28;19912;-76
2023/10/11 12:36:35;;;;;;;;;;;;;;;17.65;100.00;99969.81;5058002;28;19917;-77
2023/10/11 12:39:01;;;;;;;;;;;;;;;17.72;100.00;99937.28;5069087;28;19938;-77
2023/10/11 12:41:26;;;;;;;;;;;;;;;17.80;100.00;99933.47;5069872;28;19960;-80
2023/10/11 12:43:52;;;;;;;;;;;;;;;17.67;100.00;99956.06;5066560;28;20016;-80
2023/10/11 12:46:18;;;;;;;;;;;;;;;17.48;100.00;99956.09;5069514;28;19912;-78
2023/10/11 12:48:43;;;;;;;;;;;;;;;17.52;100.00;100013.97;5060089;28;19920;-75
2023/10/11 12:51:08;;;;;;;;;;;;;;;17.45;100.00;100017.78;5063734;28;19963;-75
2023/10/11 12:53:35;;;;;;;;;;;;;;;17.18;100.00;100019.94;5059620;28;19982;-76
2023/10/11 12:56:00;;;;;;;;;;;;;;;17.43;100.00;100044.19;5058257;28;19912;-79
2023/10/11 12:58:27;;;;;;;;;;;;;;;17.61;100.00;100060.38;5051236;28;19912;-78
2023/10/11 13:01:05;;;;;;;;;;;;;;;17.49;100.00;100043.28;5066145;28;20450;-78
2023/10/11 13:03:37;;;;;;;;;;;;;;;17.59;100.00;100045.47;5065029;28;19920;-78
2023/10/11 13:06:03;;;;;;;;;;;;;;;17.53;100.00;100036.38;5057719;28;20363;-77
2023/10/11 13:08:30;;;;;;;;;;;;;;;17.51;100.00;100038.47;5064014;28;19951;-76
2023/10/11 13:10:56;;;;;;;;;;;;;;;17.42;100.00;100073.03;5063237;28;19936;-76
2023/10/11 13:13:21;;;;;;;;;;;;;;;17.49;100.00;100083.78;5066822;28;20267;-79
2023/10/11 13:15:59;;;;;;;;;;;;;;;17.79;100.00;100118.91;5062889;28;19998;-78
2023/10/11 13:18:28;;;;;;;;;;;;;;;17.62;100.00;100089.00;5063259;28;20018;-77